Time;durP1;ratioP1;P1;durP2;ratioP2;P2;SDS_P1;SDS_P2;PMS_P1;PMS_P2;Temp;Humidity;BMP_temperature;BMP_pressure;BME280_temperature;BME280_humidity;BME280_pressure;Samples;Min_cycle;Max_cycle;Signal;HPM_P1;HPM_P2
2022/07/06 00:02:02;;;;;;;3.60;1.47;;;;;;;;;;4915251;29;20440;-75
2022/07/06 00:04:28;;;;;;;0.73;0.73;;;;;;;;;;4916361;29;20432;-74
2022/07/06 00:06:54;;;;;;;1.23;1.23;;;;;;;;;;4916093;29;20780;-74
2022/07/06 00:09:20;;;;;;;1.30;1.30;;;;;;;;;;4915274;29;20436;-74
2022/07/06 00:11:45;;;;;;;1.30;1.30;;;;;;;;;;4916079;29;20436;-74
2022/07/06 00:14:12;;;;;;;1.53;1.43;;;;;;;;;;4916611;29;20936;-74
2022/07/06 00:16:38;;;;;;;1.60;1.50;;;;;;;;;;4914474;29;20436;-74
2022/07/06 00:19:04;;;;;;;1.30;1.20;;;;;;;;;;4914152;29;20993;-74
2022/07/06 00:21:29;;;;;;;1.50;1.13;;;;;;;;;;4914963;29;20512;-74
2022/07/06 00:23:55;;;;;;;7.23;1.70;;;;;;;;;;4916542;29;20440;-74
2022/07/06 00:26:22;;;;;;;1.23;1.23;;;;;;;;;;4917924;29;20428;-74
2022/07/06 00:28:47;;;;;;;1.57;1.47;;;;;;;;;;4915552;29;20667;-77
2022/07/06 00:31:13;;;;;;;1.40;1.40;;;;;;;;;;4923135;29;20526;-79
2022/07/06 00:33:39;;;;;;;2.80;1.27;;;;;;;;;;4922792;29;20960;-77
2022/07/06 00:36:05;;;;;;;7.93;1.40;;;;;;;;;;4915351;29;20532;-80
2022/07/06 00:38:31;;;;;;;1.37;1.27;;;;;;;;;;4914646;29;20571;-74
2022/07/06 00:40:57;;;;;;;2.07;2.07;;;;;;;;;;4915411;29;20437;-74
2022/07/06 00:43:23;;;;;;;1.53;1.53;;;;;;;;;;4911725;29;20503;-76
2022/07/06 00:45:49;;;;;;;1.97;1.47;;;;;;;;;;4915760;29;20444;-79
2022/07/06 00:48:15;;;;;;;1.47;1.47;;;;;;;;;;4913388;29;20846;-76
2022/07/06 00:50:41;;;;;;;1.40;1.40;;;;;;;;;;4915546;29;20429;-78
2022/07/06 00:53:08;;;;;;;3.80;1.70;;;;;;;;;;4921421;29;20432;-75
2022/07/06 00:55:35;;;;;;;2.63;1.43;;;;;;;;;;4915380;29;20431;-76
2022/07/06 00:58:02;;;;;;;1.13;1.13;;;;;;;;;;4915110;29;20483;-75
2022/07/06 01:00:29;;;;;;;6.13;1.60;;;;;;;;;;4914592;29;20588;-75
2022/07/06 01:02:55;;;;;;;1.30;1.23;;;;;;;;;;4915264;29;21041;-74
2022/07/06 01:05:21;;;;;;;3.80;1.77;;;;;;;;;;4915954;29;20451;-74
2022/07/06 01:07:48;;;;;;;1.07;1.07;;;;;;;;;;4916515;29;20448;-78
2022/07/06 01:10:15;;;;;;;1.43;1.33;;;;;;;;;;4915613;29;20492;-77
2022/07/06 01:12:42;;;;;;;4.90;1.30;;;;;;;;;;4916009;29;20439;-74
2022/07/06 01:15:10;;;;;;;3.27;1.43;;;;;;;;;;4915006;29;20508;-74
2022/07/06 01:17:36;;;;;;;1.20;1.20;;;;;;;;;;4915340;29;20512;-73
2022/07/06 01:20:11;;;;;;;1.33;1.23;;;;;;;;;;4914820;29;20444;-73
2022/07/06 01:22:37;;;;;;;3.17;1.70;;;;;;;;;;4915289;29;20432;-77
2022/07/06 01:25:03;;;;;;;4.73;1.30;;;;;;;;;;4915183;29;20433;-77
2022/07/06 01:27:29;;;;;;;1.93;1.63;;;;;;;;;;4927332;29;20432;-75
2022/07/06 01:29:55;;;;;;;1.67;1.67;;;;;;;;;;4916885;29;20425;-74
2022/07/06 01:32:21;;;;;;;1.90;1.80;;;;;;;;;;4914043;29;20453;-77
2022/07/06 01:34:47;;;;;;;2.93;2.10;;;;;;;;;;4915365;29;20280;-73
2022/07/06 01:37:13;;;;;;;1.60;1.50;;;;;;;;;;4914445;29;20524;-74
2022/07/06 01:39:39;;;;;;;3.17;1.43;;;;;;;;;;4914016;29;20476;-73
2022/07/06 01:42:06;;;;;;;1.80;1.10;;;;;;;;;;4914973;29;20433;-74
2022/07/06 01:44:32;;;;;;;1.90;1.80;;;;;;;;;;4915414;29;20451;-74
2022/07/06 01:46:57;;;;;;;1.70;1.70;;;;;;;;;;4908914;29;20433;-74
2022/07/06 01:49:23;;;;;;;3.20;1.40;;;;;;;;;;4914248;29;20444;-74
2022/07/06 01:51:49;;;;;;;3.07;1.70;;;;;;;;;;4920107;29;20451;-73
2022/07/06 01:54:15;;;;;;;5.50;1.27;;;;;;;;;;4917618;29;20189;-74
2022/07/06 01:56:41;;;;;;;1.00;1.00;;;;;;;;;;4915083;29;20193;-75
2022/07/06 01:59:07;;;;;;;4.70;1.20;;;;;;;;;;4914584;29;20484;-74
2022/07/06 02:01:33;;;;;;;0.97;0.97;;;;;;;;;;4921458;29;20444;-73
2022/07/06 02:03:59;;;;;;;0.90;0.90;;;;;;;;;;4918439;29;20496;-73
2022/07/06 02:06:25;;;;;;;1.20;1.20;;;;;;;;;;4919111;29;20192;-73
2022/07/06 02:08:51;;;;;;;1.47;1.37;;;;;;;;;;4917388;29;20436;-73
2022/07/06 02:11:17;;;;;;;1.80;1.23;;;;;;;;;;4921677;29;20492;-74
2022/07/06 02:13:43;;;;;;;1.30;1.30;;;;;;;;;;4918666;29;20930;-74
2022/07/06 02:16:09;;;;;;;2.80;1.90;;;;;;;;;;4917534;29;20442;-74
2022/07/06 02:18:36;;;;;;;2.00;1.80;;;;;;;;;;4917912;29;20516;-74
2022/07/06 02:21:02;;;;;;;1.30;1.30;;;;;;;;;;4917192;29;20520;-74
2022/07/06 02:23:28;;;;;;;1.13;1.13;;;;;;;;;;4917529;29;20440;-73
2022/07/06 02:25:54;;;;;;;2.90;1.60;;;;;;;;;;4918243;29;20813;-74
2022/07/06 02:28:20;;;;;;;1.30;1.30;;;;;;;;;;4917542;29;20459;-76
2022/07/06 02:30:46;;;;;;;2.37;1.50;;;;;;;;;;4918057;29;20511;-74
2022/07/06 02:33:12;;;;;;;3.13;1.70;;;;;;;;;;4917305;29;20492;-74
2022/07/06 02:35:42;;;;;;;2.43;1.73;;;;;;;;;;4927366;29;20470;-74
2022/07/06 02:38:08;;;;;;;1.20;1.20;;;;;;;;;;4916009;29;20500;-74
2022/07/06 02:40:33;;;;;;;1.30;1.30;;;;;;;;;;4917524;29;20491;-74
2022/07/06 02:42:59;;;;;;;4.67;1.23;;;;;;;;;;4918150;29;20539;-73
2022/07/06 02:45:26;;;;;;;1.33;1.23;;;;;;;;;;4917169;29;20433;-73
2022/07/06 02:47:53;;;;;;;2.57;1.47;;;;;;;;;;4916096;29;20441;-73
2022/07/06 02:50:19;;;;;;;1.20;1.20;;;;;;;;;;4918402;29;20963;-73
2022/07/06 02:52:45;;;;;;;5.83;1.50;;;;;;;;;;4917136;29;20421;-73
2022/07/06 02:55:10;;;;;;;1.13;1.13;;;;;;;;;;4917736;29;20436;-73
2022/07/06 02:57:36;;;;;;;1.30;1.30;;;;;;;;;;4918070;29;20479;-73
2022/07/06 03:00:04;;;;;;;2.93;1.50;;;;;;;;;;4916427;29;20922;-73
2022/07/06 03:02:31;;;;;;;4.57;2.30;;;;;;;;;;4916846;29;20445;-74
2022/07/06 03:04:57;;;;;;;1.90;1.40;;;;;;;;;;4916620;29;20449;-73
2022/07/06 03:07:23;;;;;;;2.00;1.50;;;;;;;;;;4918092;29;20448;-74
2022/07/06 03:09:49;;;;;;;2.30;1.30;;;;;;;;;;4919443;29;20440;-73
2022/07/06 03:12:15;;;;;;;3.70;1.20;;;;;;;;;;4915712;29;20463;-74
2022/07/06 03:14:41;;;;;;;1.00;1.00;;;;;;;;;;4918021;29;20193;-74
2022/07/06 03:17:08;;;;;;;2.93;1.40;;;;;;;;;;4916006;29;20443;-74
2022/07/06 03:19:33;;;;;;;1.50;1.50;;;;;;;;;;4917428;29;20857;-74
2022/07/06 03:21:59;;;;;;;1.03;0.90;;;;;;;;;;4916369;29;20531;-75
2022/07/06 03:24:25;;;;;;;6.13;1.27;;;;;;;;;;4918588;29;20818;-74
2022/07/06 03:26:51;;;;;;;6.10;1.60;;;;;;;;;;4917309;29;20437;-74
2022/07/06 03:29:17;;;;;;;1.80;1.43;;;;;;;;;;4917669;29;20425;-74
2022/07/06 03:31:43;;;;;;;4.10;1.13;;;;;;;;;;4915581;29;20456;-74
2022/07/06 03:34:09;;;;;;;1.03;1.03;;;;;;;;;;4917367;29;20444;-74
2022/07/06 03:36:35;;;;;;;1.43;1.20;;;;;;;;;;4916956;29;20483;-73
2022/07/06 03:39:01;;;;;;;1.10;1.10;;;;;;;;;;4929552;29;20977;-74
2022/07/06 03:41:27;;;;;;;1.67;1.40;;;;;;;;;;4915913;29;20435;-73
2022/07/06 03:43:53;;;;;;;1.20;1.20;;;;;;;;;;4916879;29;20968;-73
2022/07/06 03:46:19;;;;;;;1.10;1.10;;;;;;;;;;4916882;29;20692;-74
2022/07/06 03:48:45;;;;;;;1.10;1.10;;;;;;;;;;4917079;29;20543;-74
2022/07/06 03:51:11;;;;;;;7.40;2.03;;;;;;;;;;4916530;29;20798;-74
2022/07/06 03:53:37;;;;;;;3.23;2.10;;;;;;;;;;4916595;29;21009;-73
2022/07/06 03:58:48;;;;;;;1.73;1.63;;;;;;;;;;4901943;29;20574;-76
2022/07/06 04:01:14;;;;;;;1.70;1.60;;;;;;;;;;4915711;29;20490;-76
2022/07/06 04:03:40;;;;;;;1.60;1.60;;;;;;;;;;4915212;29;20455;-75
2022/07/06 04:06:06;;;;;;;1.50;1.30;;;;;;;;;;4916942;29;20519;-79
2022/07/06 04:08:32;;;;;;;1.40;1.40;;;;;;;;;;4931449;29;20439;-74
2022/07/06 04:10:58;;;;;;;4.33;1.60;;;;;;;;;;4916496;29;20440;-79
2022/07/06 04:13:25;;;;;;;9.83;1.60;;;;;;;;;;4917362;29;20436;-80
2022/07/06 04:15:51;;;;;;;4.30;1.40;;;;;;;;;;4916467;29;20555;-74
2022/07/06 04:18:17;;;;;;;3.00;1.47;;;;;;;;;;4915922;29;20524;-76
2022/07/06 04:20:43;;;;;;;5.40;3.43;;;;;;;;;;4916320;29;20444;-77
2022/07/06 04:23:09;;;;;;;1.63;1.63;;;;;;;;;;4914583;29;20461;-75
2022/07/06 04:25:35;;;;;;;1.93;1.73;;;;;;;;;;4914546;29;20483;-75
2022/07/06 04:28:01;;;;;;;1.90;1.80;;;;;;;;;;4916257;29;20464;-78
2022/07/06 04:30:27;;;;;;;8.50;1.67;;;;;;;;;;4916317;29;20878;-76
2022/07/06 04:32:55;;;;;;;2.00;2.00;;;;;;;;;;4916177;29;20442;-75
2022/07/06 04:35:21;;;;;;;2.03;1.93;;;;;;;;;;4914296;29;20492;-76
2022/07/06 04:37:47;;;;;;;2.10;2.00;;;;;;;;;;4916496;29;20480;-74
2022/07/06 04:40:13;;;;;;;1.60;1.60;;;;;;;;;;4915385;29;20440;-75
2022/07/06 04:42:39;;;;;;;1.50;1.50;;;;;;;;;;4916354;29;20487;-73
2022/07/06 04:45:06;;;;;;;8.70;1.73;;;;;;;;;;4914001;29;20440;-72
2022/07/06 04:47:32;;;;;;;2.10;2.10;;;;;;;;;;4915433;29;20433;-73
2022/07/06 04:49:57;;;;;;;5.97;2.07;;;;;;;;;;4915622;29;21253;-72
2022/07/06 04:52:23;;;;;;;2.03;1.93;;;;;;;;;;4914778;29;20444;-77
2022/07/06 04:54:49;;;;;;;1.90;1.90;;;;;;;;;;4911640;29;20196;-76
2022/07/06 04:57:15;;;;;;;2.50;2.40;;;;;;;;;;4915039;29;20188;-71
2022/07/06 04:59:41;;;;;;;1.93;1.93;;;;;;;;;;4915140;29;20452;-73
2022/07/06 05:02:07;;;;;;;2.10;2.07;;;;;;;;;;4929858;29;20790;-77
2022/07/06 05:04:33;;;;;;;2.00;2.00;;;;;;;;;;4920746;29;20436;-76
2022/07/06 05:07:00;;;;;;;2.70;2.33;;;;;;;;;;4925029;29;20473;-74
2022/07/06 05:09:26;;;;;;;2.10;2.00;;;;;;;;;;4915547;29;20480;-76
2022/07/06 05:11:52;;;;;;;2.73;2.00;;;;;;;;;;4914371;29;20432;-76
2022/07/06 05:14:18;;;;;;;1.87;1.87;;;;;;;;;;4914039;29;20444;-72
2022/07/06 05:16:44;;;;;;;2.30;1.90;;;;;;;;;;4927706;29;20543;-76
2022/07/06 05:19:10;;;;;;;3.90;3.20;;;;;;;;;;4915772;29;20503;-73
2022/07/06 05:21:35;;;;;;;2.23;2.13;;;;;;;;;;4915857;29;20437;-76
2022/07/06 05:24:01;;;;;;;1.67;1.57;;;;;;;;;;4915551;29;20440;-74
2022/07/06 05:26:27;;;;;;;2.60;2.50;;;;;;;;;;4913292;29;20459;-72
2022/07/06 05:28:53;;;;;;;3.73;2.27;;;;;;;;;;4915763;29;20223;-80
2022/07/06 05:31:19;;;;;;;2.60;2.40;;;;;;;;;;4918696;29;20436;-76
2022/07/06 05:33:45;;;;;;;2.77;2.57;;;;;;;;;;4916271;29;20184;-74
2022/07/06 05:36:11;;;;;;;2.67;2.37;;;;;;;;;;4917611;29;20180;-73
2022/07/06 05:38:37;;;;;;;2.10;2.00;;;;;;;;;;4918537;29;20488;-72
2022/07/06 05:41:03;;;;;;;2.20;2.10;;;;;;;;;;4912350;29;20937;-74
2022/07/06 05:43:29;;;;;;;8.73;2.00;;;;;;;;;;4919260;29;20849;-72
2022/07/06 05:45:55;;;;;;;1.90;1.90;;;;;;;;;;4912648;29;20433;-77
2022/07/06 05:51:05;;;;;;;3.67;2.20;;;;;;;;;;4919325;29;20412;-73
2022/07/06 05:53:31;;;;;;;2.93;2.40;;;;;;;;;;4918771;29;20444;-72
2022/07/06 05:55:57;;;;;;;6.33;2.23;;;;;;;;;;4926193;29;20850;-72
2022/07/06 05:58:25;;;;;;;2.50;2.30;;;;;;;;;;4919000;29;20971;-72
2022/07/06 06:00:51;;;;;;;3.13;1.80;;;;;;;;;;4916588;29;20416;-72
2022/07/06 06:03:17;;;;;;;1.80;1.80;;;;;;;;;;4917555;29;20535;-73
2022/07/06 06:05:43;;;;;;;3.80;1.80;;;;;;;;;;4918434;29;20440;-72
2022/07/06 06:08:09;;;;;;;2.70;2.50;;;;;;;;;;4926245;29;20441;-72
2022/07/06 06:10:35;;;;;;;1.97;1.97;;;;;;;;;;4917345;29;20891;-73
2022/07/06 06:13:01;;;;;;;2.13;2.13;;;;;;;;;;4918774;29;20461;-72
2022/07/06 06:15:27;;;;;;;2.50;2.40;;;;;;;;;;4918992;29;20532;-72
2022/07/06 06:17:53;;;;;;;2.83;2.60;;;;;;;;;;4915983;29;20259;-72
2022/07/06 06:20:19;;;;;;;4.10;2.30;;;;;;;;;;4927904;29;20204;-72
2022/07/06 06:22:45;;;;;;;2.63;2.40;;;;;;;;;;4918988;29;20500;-73
2022/07/06 06:25:11;;;;;;;3.00;2.80;;;;;;;;;;4912048;29;21012;-73
2022/07/06 06:27:37;;;;;;;4.40;2.97;;;;;;;;;;4912029;29;20442;-72
2022/07/06 06:30:03;;;;;;;4.33;2.80;;;;;;;;;;4903100;29;20925;-72
2022/07/06 06:32:29;;;;;;;2.67;2.63;;;;;;;;;;4921372;29;20451;-72
2022/07/06 06:34:55;;;;;;;6.77;2.80;;;;;;;;;;4922623;29;20439;-67
2022/07/06 06:37:21;;;;;;;3.13;3.03;;;;;;;;;;4917388;29;20531;-74
2022/07/06 06:39:47;;;;;;;2.97;2.60;;;;;;;;;;4907706;29;20484;-73
2022/07/06 06:42:13;;;;;;;3.63;3.53;;;;;;;;;;4915866;29;20189;-75
2022/07/06 06:44:39;;;;;;;13.67;2.77;;;;;;;;;;4934765;29;20200;-73
2022/07/06 06:47:05;;;;;;;3.70;3.00;;;;;;;;;;4936832;29;20447;-73
2022/07/06 06:49:31;;;;;;;3.77;3.40;;;;;;;;;;4937491;29;20195;-73
2022/07/06 06:51:57;;;;;;;3.77;3.57;;;;;;;;;;4933345;29;20486;-74
2022/07/06 06:54:23;;;;;;;3.33;3.10;;;;;;;;;;4918174;29;20331;-74
2022/07/06 06:56:49;;;;;;;2.83;2.63;;;;;;;;;;4918261;29;20508;-75
2022/07/06 06:59:15;;;;;;;11.60;2.30;;;;;;;;;;4917111;29;20216;-73
2022/07/06 07:01:41;;;;;;;2.60;2.47;;;;;;;;;;4916025;29;20193;-73
2022/07/06 07:04:07;;;;;;;3.70;2.73;;;;;;;;;;4918113;29;20196;-74
2022/07/06 07:06:33;;;;;;;3.20;2.60;;;;;;;;;;4916095;29;20436;-75
2022/07/06 07:08:59;;;;;;;3.90;3.03;;;;;;;;;;4917447;29;20532;-75
2022/07/06 07:11:25;;;;;;;3.67;2.27;;;;;;;;;;4917900;29;20445;-74
2022/07/06 07:13:51;;;;;;;7.00;2.67;;;;;;;;;;4918184;29;20527;-74
2022/07/06 07:16:17;;;;;;;6.57;2.70;;;;;;;;;;4916358;29;20523;-72
2022/07/06 07:18:43;;;;;;;2.60;2.50;;;;;;;;;;4906205;29;20555;-73
2022/07/06 07:21:09;;;;;;;2.07;1.97;;;;;;;;;;4919865;29;20495;-73
2022/07/06 07:23:35;;;;;;;3.37;2.80;;;;;;;;;;4935262;29;20231;-73
2022/07/06 07:26:01;;;;;;;3.53;2.60;;;;;;;;;;4916252;29;20480;-73
2022/07/06 07:28:27;;;;;;;2.60;2.40;;;;;;;;;;4917680;29;20524;-69
2022/07/06 07:30:52;;;;;;;8.43;2.37;;;;;;;;;;4917247;29;20545;-73
2022/07/06 07:33:19;;;;;;;2.30;2.20;;;;;;;;;;4915689;29;20444;-74
2022/07/06 07:35:45;;;;;;;4.23;2.30;;;;;;;;;;4933946;29;20582;-74
2022/07/06 07:38:11;;;;;;;9.60;2.20;;;;;;;;;;4936473;29;20495;-72
2022/07/06 07:40:37;;;;;;;2.80;2.60;;;;;;;;;;4923397;29;20920;-72
2022/07/06 07:43:03;;;;;;;5.23;2.40;;;;;;;;;;4915986;29;20631;-73
2022/07/06 07:45:29;;;;;;;3.60;3.33;;;;;;;;;;4912285;29;20717;-75
2022/07/06 07:47:55;;;;;;;2.53;2.43;;;;;;;;;;4915877;29;20587;-73
2022/07/06 07:50:21;;;;;;;2.70;2.50;;;;;;;;;;4916035;29;20539;-72
2022/07/06 07:52:47;;;;;;;3.80;2.40;;;;;;;;;;4917178;29;20577;-73
2022/07/06 07:55:13;;;;;;;4.50;3.00;;;;;;;;;;4916568;29;20452;-73
2022/07/06 07:57:39;;;;;;;10.33;3.13;;;;;;;;;;4916148;29;20248;-73
2022/07/06 08:00:05;;;;;;;4.00;2.53;;;;;;;;;;4923752;29;20443;-73
2022/07/06 08:02:31;;;;;;;6.80;2.37;;;;;;;;;;4923817;29;20433;-73
2022/07/06 08:04:57;;;;;;;5.70;2.73;;;;;;;;;;4916322;29;20428;-73
2022/07/06 08:07:23;;;;;;;2.70;2.50;;;;;;;;;;4935017;28;20200;-72
2022/07/06 08:09:49;;;;;;;2.10;1.90;;;;;;;;;;4915370;29;20433;-78
2022/07/06 08:12:15;;;;;;;2.50;2.37;;;;;;;;;;4916308;29;20795;-73
2022/07/06 08:14:41;;;;;;;13.33;2.83;;;;;;;;;;4916049;29;20428;-74
2022/07/06 08:17:07;;;;;;;2.80;2.50;;;;;;;;;;4913443;29;20512;-73
2022/07/06 08:19:33;;;;;;;4.23;2.50;;;;;;;;;;4916156;29;21024;-73
2022/07/06 08:21:59;;;;;;;2.60;2.43;;;;;;;;;;4913895;29;20432;-73
2022/07/06 08:24:25;;;;;;;4.13;3.13;;;;;;;;;;4919366;29;20435;-76
2022/07/06 08:26:51;;;;;;;6.90;2.27;;;;;;;;;;4934067;29;20781;-76
2022/07/06 08:29:17;;;;;;;2.90;2.70;;;;;;;;;;4920184;29;20436;-72
2022/07/06 08:31:43;;;;;;;5.50;2.27;;;;;;;;;;4915052;29;20829;-73
2022/07/06 08:34:09;;;;;;;2.77;2.30;;;;;;;;;;4915712;29;20543;-73
2022/07/06 08:36:35;;;;;;;6.90;1.97;;;;;;;;;;4916498;29;20480;-75
2022/07/06 08:39:01;;;;;;;2.40;2.30;;;;;;;;;;4916441;29;20524;-73
2022/07/06 08:41:29;;;;;;;3.30;3.10;;;;;;;;;;4916263;29;20482;-73
2022/07/06 08:43:55;;;;;;;6.10;2.50;;;;;;;;;;4916533;29;20468;-73
2022/07/06 08:46:22;;;;;;;4.10;2.30;;;;;;;;;;4916258;29;20499;-74
2022/07/06 08:48:48;;;;;;;2.87;2.60;;;;;;;;;;4916123;29;20457;-74
2022/07/06 08:51:14;;;;;;;2.60;2.20;;;;;;;;;;4916326;29;20791;-73
2022/07/06 08:53:44;;;;;;;3.50;2.87;;;;;;;;;;4918505;29;20479;-73
2022/07/06 08:56:10;;;;;;;2.80;2.10;;;;;;;;;;4924909;29;20459;-73
2022/07/06 08:58:37;;;;;;;2.20;2.10;;;;;;;;;;4934108;29;21069;-73
2022/07/06 09:01:03;;;;;;;1.90;1.83;;;;;;;;;;4929526;29;20779;-73
2022/07/06 09:03:29;;;;;;;3.53;2.70;;;;;;;;;;4916586;29;20459;-73
2022/07/06 09:05:59;;;;;;;1.77;1.73;;;;;;;;;;4916491;29;20416;-73
2022/07/06 09:08:27;;;;;;;4.53;2.23;;;;;;;;;;4915057;29;20913;-73
2022/07/06 09:10:53;;;;;;;2.80;2.30;;;;;;;;;;4936239;29;20432;-73
2022/07/06 09:13:19;;;;;;;8.80;3.80;;;;;;;;;;4939193;29;20428;-73
2022/07/06 09:15:45;;;;;;;2.27;2.07;;;;;;;;;;4938818;29;20443;-73
2022/07/06 09:18:11;;;;;;;2.40;2.13;;;;;;;;;;4938958;29;20479;-73
2022/07/06 09:20:37;;;;;;;6.40;2.43;;;;;;;;;;4932485;29;20448;-73
2022/07/06 09:23:05;;;;;;;2.37;2.27;;;;;;;;;;4939129;29;20416;-74
2022/07/06 09:25:31;;;;;;;7.70;3.07;;;;;;;;;;4939054;29;20938;-73
2022/07/06 09:27:58;;;;;;;2.23;2.20;;;;;;;;;;4938523;29;20427;-74
2022/07/06 09:30:26;;;;;;;2.50;2.27;;;;;;;;;;4919226;29;20507;-74
2022/07/06 09:32:53;;;;;;;2.63;2.43;;;;;;;;;;4919512;29;20440;-73
2022/07/06 09:35:32;;;;;;;1.90;1.80;;;;;;;;;;4917774;29;20478;-76
2022/07/06 09:38:02;;;;;;;2.20;2.10;;;;;;;;;;4919588;29;20845;-73
2022/07/06 09:40:28;;;;;;;3.93;2.47;;;;;;;;;;4918897;29;20435;-74
2022/07/06 09:43:13;;;;;;;4.60;2.63;;;;;;;;;;4919935;29;20416;-73
2022/07/06 09:45:39;;;;;;;3.13;2.10;;;;;;;;;;4919378;29;20456;-73
2022/07/06 09:48:21;;;;;;;3.37;2.00;;;;;;;;;;4919456;29;20424;-73
2022/07/06 09:50:47;;;;;;;1.57;1.57;;;;;;;;;;4921222;29;20444;-67
2022/07/06 09:53:13;;;;;;;2.57;2.40;;;;;;;;;;4919660;29;20455;-69
2022/07/06 09:55:43;;;;;;;8.20;2.30;;;;;;;;;;4919256;29;20433;-73
2022/07/06 09:58:09;;;;;;;2.60;2.30;;;;;;;;;;4918782;29;20511;-73
2022/07/06 10:00:35;;;;;;;2.40;2.30;;;;;;;;;;4935589;29;20471;-73
2022/07/06 10:03:02;;;;;;;3.70;1.97;;;;;;;;;;4919063;29;20440;-73
2022/07/06 10:05:31;;;;;;;4.10;2.17;;;;;;;;;;4918216;29;20420;-73
2022/07/06 10:07:59;;;;;;;2.50;2.10;;;;;;;;;;4918166;29;20948;-73
2022/07/06 10:10:26;;;;;;;2.47;2.07;;;;;;;;;;4918279;29;20439;-73
2022/07/06 10:12:54;;;;;;;1.93;1.83;;;;;;;;;;4905779;29;20441;-73
2022/07/06 10:15:22;;;;;;;1.47;1.47;;;;;;;;;;4917513;29;20841;-73
2022/07/06 10:17:48;;;;;;;1.60;1.50;;;;;;;;;;4919210;29;20823;-73
2022/07/06 10:20:15;;;;;;;2.53;1.83;;;;;;;;;;4917557;29;20558;-73
2022/07/06 10:22:41;;;;;;;3.63;2.10;;;;;;;;;;4909415;29;20436;-73
2022/07/06 10:25:07;;;;;;;4.70;1.67;;;;;;;;;;4917219;29;20449;-74
2022/07/06 10:27:33;;;;;;;2.47;1.87;;;;;;;;;;4918086;29;20435;-73
2022/07/06 10:29:59;;;;;;;2.10;2.00;;;;;;;;;;4918104;29;20453;-73
2022/07/06 10:32:25;;;;;;;3.73;1.80;;;;;;;;;;4917820;29;20570;-73
2022/07/06 10:34:51;;;;;;;6.33;1.90;;;;;;;;;;4918324;29;20251;-73
2022/07/06 10:37:25;;;;;;;1.73;1.63;;;;;;;;;;4923467;29;20444;-73
2022/07/06 10:42:39;;;;;;;2.30;2.20;;;;;;;;;;4917591;29;20432;-73
2022/07/06 10:45:05;;;;;;;2.10;1.60;;;;;;;;;;4917576;29;20442;-74
2022/07/06 10:47:31;;;;;;;3.13;1.43;;;;;;;;;;4908693;29;20481;-73
2022/07/06 10:50:00;;;;;;;2.33;1.77;;;;;;;;;;4918436;29;20841;-74
2022/07/06 10:52:45;;;;;;;1.93;1.77;;;;;;;;;;4916905;29;20432;-74
2022/07/06 10:55:29;;;;;;;1.53;1.53;;;;;;;;;;4934256;29;20960;-74
2022/07/06 10:57:56;;;;;;;3.50;2.80;;;;;;;;;;4916142;29;20484;-75
2022/07/06 11:00:22;;;;;;;1.70;1.60;;;;;;;;;;4910435;29;21029;-74
2022/07/06 11:02:48;;;;;;;1.73;1.30;;;;;;;;;;4912720;29;20957;-74
2022/07/06 11:05:32;;;;;;;3.13;1.90;;;;;;;;;;4917977;29;20429;-75
2022/07/06 11:08:01;;;;;;;16.83;2.60;;;;;;;;;;4917930;29;20432;-74
2022/07/06 11:10:27;;;;;;;1.80;1.60;;;;;;;;;;4913085;29;20472;-74
2022/07/06 11:13:02;;;;;;;1.83;1.73;;;;;;;;;;4918133;29;20806;-73
2022/07/06 11:15:47;;;;;;;1.90;1.77;;;;;;;;;;4919973;29;20436;-74
2022/07/06 11:18:13;;;;;;;3.00;2.43;;;;;;;;;;4899059;29;20501;-74
2022/07/06 11:20:40;;;;;;;1.77;1.50;;;;;;;;;;4899225;29;20957;-73
2022/07/06 11:23:06;;;;;;;2.47;2.03;;;;;;;;;;4916395;29;20795;-73
2022/07/06 11:25:32;;;;;;;2.07;1.97;;;;;;;;;;4917108;29;20930;-74
2022/07/06 11:27:58;;;;;;;2.60;1.40;;;;;;;;;;4916011;29;20500;-73
2022/07/06 11:30:25;;;;;;;2.30;1.83;;;;;;;;;;4916213;29;20437;-74
2022/07/06 11:32:51;;;;;;;3.50;1.40;;;;;;;;;;4916382;29;20483;-73
2022/07/06 11:35:23;;;;;;;1.67;1.67;;;;;;;;;;4917220;29;20477;-74
2022/07/06 11:37:49;;;;;;;3.67;1.63;;;;;;;;;;4917286;29;20488;-74
2022/07/06 11:40:18;;;;;;;1.53;1.53;;;;;;;;;;4920542;29;20917;-73
2022/07/06 11:42:54;;;;;;;0.93;0.93;;;;;;;;;;4924231;29;20913;-73
2022/07/06 11:45:26;;;;;;;1.93;1.40;;;;;;;;;;4915561;29;20432;-73
2022/07/06 11:48:09;;;;;;;9.83;2.10;;;;;;;;;;4917098;29;20863;-74
2022/07/06 11:50:35;;;;;;;3.70;1.60;;;;;;;;;;4915532;29;20490;-73
2022/07/06 11:53:08;;;;;;;1.93;1.87;;;;;;;;;;5069172;28;20531;-73
2022/07/06 11:55:34;;;;;;;1.80;1.40;;;;;;;;;;5070005;28;20414;-73
2022/07/06 11:58:01;;;;;;;4.53;2.63;;;;;;;;;;5055469;28;20484;-73
2022/07/06 12:00:27;;;;;;;2.03;1.93;;;;;;;;;;5048527;28;20480;-73
2022/07/06 12:03:00;;;;;;;3.23;1.80;;;;;;;;;;5049568;28;20426;-73
2022/07/06 12:05:30;;;;;;;4.20;1.73;;;;;;;;;;5043234;28;20430;-72
2022/07/06 12:08:08;;;;;;;2.47;2.37;;;;;;;;;;5033341;28;20443;-73
2022/07/06 12:10:35;;;;;;;4.73;2.57;;;;;;;;;;5053280;28;20463;-72
2022/07/06 12:13:05;;;;;;;2.53;1.83;;;;;;;;;;5060722;28;20477;-73
2022/07/06 12:15:31;;;;;;;8.53;2.13;;;;;;;;;;5047502;28;20425;-72
2022/07/06 12:17:57;;;;;;;2.27;2.17;;;;;;;;;;5049220;28;20450;-74
2022/07/06 12:20:24;;;;;;;1.97;1.83;;;;;;;;;;5054355;28;21430;-73
2022/07/06 12:22:50;;;;;;;2.30;1.50;;;;;;;;;;5061071;28;20521;-73
2022/07/06 12:25:35;;;;;;;3.00;1.53;;;;;;;;;;5049585;28;20465;-73
2022/07/06 12:28:01;;;;;;;3.33;1.73;;;;;;;;;;5049419;28;20430;-73
2022/07/06 12:30:27;;;;;;;1.77;1.30;;;;;;;;;;5048015;28;20442;-73
2022/07/06 12:33:14;;;;;;;4.93;2.10;;;;;;;;;;5048965;28;20486;-73
2022/07/06 12:35:40;;;;;;;1.60;1.43;;;;;;;;;;5049455;28;20418;-73
2022/07/06 12:38:06;;;;;;;7.10;2.20;;;;;;;;;;5049139;28;20438;-73
2022/07/06 12:40:32;;;;;;;4.37;1.80;;;;;;;;;;5048940;28;20467;-73
2022/07/06 12:42:59;;;;;;;3.77;1.70;;;;;;;;;;5049278;28;20445;-73
2022/07/06 12:45:28;;;;;;;2.43;1.80;;;;;;;;;;5048825;28;20548;-73
2022/07/06 12:48:05;;;;;;;1.67;1.67;;;;;;;;;;5048816;28;20431;-74
2022/07/06 12:50:35;;;;;;;2.10;1.73;;;;;;;;;;5048779;28;20429;-74
2022/07/06 12:53:02;;;;;;;2.00;1.30;;;;;;;;;;5048879;28;20490;-74
2022/07/06 12:55:29;;;;;;;1.60;1.60;;;;;;;;;;5047829;28;20427;-73
2022/07/06 12:57:56;;;;;;;7.33;2.13;;;;;;;;;;5048906;28;20429;-73
2022/07/06 13:00:22;;;;;;;3.80;1.80;;;;;;;;;;5047775;28;20902;-73
2022/07/06 13:02:53;;;;;;;1.47;1.37;;;;;;;;;;5045092;28;20450;-73
2022/07/06 13:05:27;;;;;;;3.83;1.83;;;;;;;;;;5035663;28;20421;-73
2022/07/06 13:07:53;;;;;;;4.87;1.70;;;;;;;;;;5034204;28;20754;-73
2022/07/06 13:10:19;;;;;;;9.10;2.10;;;;;;;;;;5035089;28;20468;-73
2022/07/06 13:12:45;;;;;;;2.00;1.43;;;;;;;;;;5035352;28;20837;-73
2022/07/06 13:15:11;;;;;;;2.20;2.10;;;;;;;;;;5035073;28;20485;-73
2022/07/06 13:17:37;;;;;;;4.73;1.77;;;;;;;;;;5035359;28;20797;-73
2022/07/06 13:20:04;;;;;;;1.53;1.53;;;;;;;;;;5034871;28;20427;-73
2022/07/06 13:22:30;;;;;;;12.17;1.83;;;;;;;;;;5035345;28;20427;-73
2022/07/06 13:24:56;;;;;;;1.63;1.43;;;;;;;;;;5033412;28;20506;-74
2022/07/06 13:27:22;;;;;;;5.50;1.83;;;;;;;;;;5035285;28;20443;-73
2022/07/06 13:29:48;;;;;;;1.90;1.80;;;;;;;;;;5035050;28;20411;-73
2022/07/06 13:32:14;;;;;;;8.00;1.70;;;;;;;;;;5034429;28;20478;-73
2022/07/06 13:34:40;;;;;;;2.03;1.83;;;;;;;;;;5035175;28;20510;-73
2022/07/06 13:37:06;;;;;;;1.63;1.53;;;;;;;;;;5034770;28;20467;-73
2022/07/06 13:39:33;;;;;;;1.63;1.50;;;;;;;;;;5034926;28;20407;-73
2022/07/06 13:41:59;;;;;;;1.70;1.60;;;;;;;;;;5034469;28;20432;-73
2022/07/06 13:44:24;;;;;;;1.30;1.30;;;;;;;;;;5034653;28;20423;-74
2022/07/06 13:46:51;;;;;;;4.13;1.50;;;;;;;;;;5034552;28;20454;-73
2022/07/06 13:49:17;;;;;;;14.53;1.87;;;;;;;;;;5034151;28;20546;-73
2022/07/06 13:51:43;;;;;;;2.00;2.00;;;;;;;;;;5032583;28;20483;-73
2022/07/06 13:54:09;;;;;;;2.73;1.70;;;;;;;;;;5034591;28;20422;-74
2022/07/06 13:56:37;;;;;;;1.43;1.27;;;;;;;;;;5034605;28;20403;-73
2022/07/06 13:59:03;;;;;;;1.53;1.43;;;;;;;;;;5034637;28;20426;-73
2022/07/06 14:01:29;;;;;;;2.30;1.53;;;;;;;;;;5033348;28;20510;-73
2022/07/06 14:03:55;;;;;;;7.30;1.53;;;;;;;;;;5034186;28;20442;-73
2022/07/06 14:06:21;;;;;;;7.37;2.03;;;;;;;;;;5034519;28;20423;-73
2022/07/06 14:08:47;;;;;;;2.13;1.93;;;;;;;;;;5034395;28;20415;-73
2022/07/06 14:11:13;;;;;;;6.50;1.60;;;;;;;;;;5033798;28;20455;-73
2022/07/06 14:13:39;;;;;;;2.20;2.10;;;;;;;;;;5034013;28;20600;-73
2022/07/06 14:16:06;;;;;;;5.07;1.53;;;;;;;;;;5032636;28;20858;-73
2022/07/06 14:18:32;;;;;;;1.60;1.50;;;;;;;;;;5034120;28;20840;-73
2022/07/06 14:21:00;;;;;;;2.33;1.67;;;;;;;;;;5033896;28;20411;-73
2022/07/06 14:23:26;;;;;;;2.20;1.70;;;;;;;;;;5034174;28;20455;-73
2022/07/06 14:25:52;;;;;;;4.03;1.10;;;;;;;;;;5034104;28;20450;-73
2022/07/06 14:28:18;;;;;;;1.83;1.27;;;;;;;;;;5033517;28;20431;-73
2022/07/06 14:30:45;;;;;;;1.23;1.13;;;;;;;;;;5032133;28;20419;-74
2022/07/06 14:33:11;;;;;;;2.20;2.03;;;;;;;;;;5037993;28;20893;-75
2022/07/06 14:35:38;;;;;;;4.33;2.13;;;;;;;;;;5038012;28;20434;-75
2022/07/06 14:38:05;;;;;;;2.43;2.23;;;;;;;;;;5037862;28;20438;-73
2022/07/06 14:40:31;;;;;;;2.53;1.63;;;;;;;;;;5034554;28;20578;-75
2022/07/06 14:42:58;;;;;;;2.53;1.37;;;;;;;;;;5033323;28;20439;-72
2022/07/06 14:45:24;;;;;;;5.43;2.53;;;;;;;;;;5043033;28;20466;-74
2022/07/06 14:47:50;;;;;;;3.13;1.60;;;;;;;;;;5042202;28;20430;-73
2022/07/06 14:50:16;;;;;;;1.80;1.30;;;;;;;;;;5032611;28;20987;-71